sensor_id;sensor_type;location;lat;lon;timestamp;pressure;altitude;pressure_sealevel;temperature
8227;BMP180;4154;48.810;9.012;2023-05-07T00:00:45;97029.00;;;13.40
8227;BMP180;4154;48.810;9.012;2023-05-07T00:03:11;97029.00;;;13.40
8227;BMP180;4154;48.810;9.012;2023-05-07T00:05:36;97024.00;;;13.40
8227;BMP180;4154;48.810;9.012;2023-05-07T00:08:03;97023.00;;;13.40
8227;BMP180;4154;48.810;9.012;2023-05-07T00:10:29;97023.00;;;13.30
8227;BMP180;4154;48.810;9.012;2023-05-07T00:12:55;97026.00;;;13.30
8227;BMP180;4154;48.810;9.012;2023-05-07T00:15:21;97031.00;;;13.30
8227;BMP180;4154;48.810;9.012;2023-05-07T00:17:47;97019.00;;;13.20
8227;BMP180;4154;48.810;9.012;2023-05-07T00:20:13;97021.00;;;13.20
8227;BMP180;4154;48.810;9.012;2023-05-07T00:22:39;97012.00;;;13.20
8227;BMP180;4154;48.810;9.012;2023-05-07T00:25:05;97013.00;;;13.30
8227;BMP180;4154;48.810;9.012;2023-05-07T00:27:31;97011.00;;;13.30
8227;BMP180;4154;48.810;9.012;2023-05-07T00:29:57;97016.00;;;13.30
8227;BMP180;4154;48.810;9.012;2023-05-07T00:32:22;97013.00;;;13.30
8227;BMP180;4154;48.810;9.012;2023-05-07T00:34:48;97017.00;;;13.20
8227;BMP180;4154;48.810;9.012;2023-05-07T00:37:14;97007.00;;;13.10
8227;BMP180;4154;48.810;9.012;2023-05-07T00:39:40;97005.00;;;13.10
8227;BMP180;4154;48.810;9.012;2023-05-07T00:42:05;97009.00;;;13.00
8227;BMP180;4154;48.810;9.012;2023-05-07T00:44:31;97001.00;;;13.00
8227;BMP180;4154;48.810;9.012;2023-05-07T00:46:57;97003.00;;;12.90
8227;BMP180;4154;48.810;9.012;2023-05-07T00:49:39;96999.00;;;12.90
8227;BMP180;4154;48.810;9.012;2023-05-07T00:52:07;97001.00;;;12.90
8227;BMP180;4154;48.810;9.012;2023-05-07T00:54:35;97003.00;;;12.90
8227;BMP180;4154;48.810;9.012;2023-05-07T00:57:02;96989.00;;;12.90
8227;BMP180;4154;48.810;9.012;2023-05-07T00:59:30;96991.00;;;12.90
8227;BMP180;4154;48.810;9.012;2023-05-07T01:01:57;96993.00;;;12.90
8227;BMP180;4154;48.810;9.012;2023-05-07T01:04:23;97009.00;;;12.90
8227;BMP180;4154;48.810;9.012;2023-05-07T01:06:49;97005.00;;;12.90
8227;BMP180;4154;48.810;9.012;2023-05-07T01:09:17;97000.00;;;12.90
8227;BMP180;4154;48.810;9.012;2023-05-07T01:11:44;96998.00;;;12.90
8227;BMP180;4154;48.810;9.012;2023-05-07T01:14:10;96996.00;;;12.90
8227;BMP180;4154;48.810;9.012;2023-05-07T01:16:36;96986.00;;;12.80
8227;BMP180;4154;48.810;9.012;2023-05-07T01:19:03;96996.00;;;12.80
8227;BMP180;4154;48.810;9.012;2023-05-07T01:21:33;96980.00;;;12.90
8227;BMP180;4154;48.810;9.012;2023-05-07T01:24:00;96984.00;;;12.80
8227;BMP180;4154;48.810;9.012;2023-05-07T01:26:27;96984.00;;;12.80
8227;BMP180;4154;48.810;9.012;2023-05-07T01:28:53;96987.00;;;12.70
8227;BMP180;4154;48.810;9.012;2023-05-07T01:31:19;96984.00;;;12.70
8227;BMP180;4154;48.810;9.012;2023-05-07T01:33:48;96996.00;;;12.70
8227;BMP180;4154;48.810;9.012;2023-05-07T01:36:15;96987.00;;;12.70
8227;BMP180;4154;48.810;9.012;2023-05-07T01:38:43;96989.00;;;12.70
8227;BMP180;4154;48.810;9.012;2023-05-07T01:41:10;96981.00;;;12.80
8227;BMP180;4154;48.810;9.012;2023-05-07T01:43:37;96981.00;;;12.80
8227;BMP180;4154;48.810;9.012;2023-05-07T01:46:03;96985.00;;;12.80
8227;BMP180;4154;48.810;9.012;2023-05-07T01:48:29;96987.00;;;12.80
8227;BMP180;4154;48.810;9.012;2023-05-07T01:50:55;96984.00;;;12.80
8227;BMP180;4154;48.810;9.012;2023-05-07T01:53:21;96989.00;;;12.70
8227;BMP180;4154;48.810;9.012;2023-05-07T01:55:47;96987.00;;;12.70
8227;BMP180;4154;48.810;9.012;2023-05-07T01:58:13;96999.00;;;12.70
8227;BMP180;4154;48.810;9.012;2023-05-07T02:00:40;96988.00;;;12.70
8227;BMP180;4154;48.810;9.012;2023-05-07T02:03:06;96991.00;;;12.80
8227;BMP180;4154;48.810;9.012;2023-05-07T02:05:32;96988.00;;;12.80
8227;BMP180;4154;48.810;9.012;2023-05-07T02:07:58;96997.00;;;12.80
8227;BMP180;4154;48.810;9.012;2023-05-07T02:10:23;96987.00;;;12.80
8227;BMP180;4154;48.810;9.012;2023-05-07T02:12:49;96986.00;;;12.80
8227;BMP180;4154;48.810;9.012;2023-05-07T02:15:15;96979.00;;;12.80
8227;BMP180;4154;48.810;9.012;2023-05-07T02:18:00;96982.00;;;12.70
8227;BMP180;4154;48.810;9.012;2023-05-07T02:20:26;96989.00;;;12.70
8227;BMP180;4154;48.810;9.012;2023-05-07T02:22:52;96975.00;;;12.60
8227;BMP180;4154;48.810;9.012;2023-05-07T02:25:18;96978.00;;;12.60
8227;BMP180;4154;48.810;9.012;2023-05-07T02:27:44;96983.00;;;12.60
8227;BMP180;4154;48.810;9.012;2023-05-07T02:30:11;96979.00;;;12.60
8227;BMP180;4154;48.810;9.012;2023-05-07T02:32:36;96977.00;;;12.60
8227;BMP180;4154;48.810;9.012;2023-05-07T02:35:02;96983.00;;;12.60
8227;BMP180;4154;48.810;9.012;2023-05-07T02:37:28;96983.00;;;12.50
8227;BMP180;4154;48.810;9.012;2023-05-07T02:39:55;96978.00;;;12.50
8227;BMP180;4154;48.810;9.012;2023-05-07T02:42:20;96980.00;;;12.50
8227;BMP180;4154;48.810;9.012;2023-05-07T02:44:46;96977.00;;;12.50
8227;BMP180;4154;48.810;9.012;2023-05-07T02:47:14;96986.00;;;12.40
8227;BMP180;4154;48.810;9.012;2023-05-07T02:49:40;96975.00;;;12.40
8227;BMP180;4154;48.810;9.012;2023-05-07T02:52:07;96983.00;;;12.40
8227;BMP180;4154;48.810;9.012;2023-05-07T02:54:33;96983.00;;;12.40
8227;BMP180;4154;48.810;9.012;2023-05-07T02:56:58;96973.00;;;12.40
8227;BMP180;4154;48.810;9.012;2023-05-07T02:59:26;96961.00;;;12.40
8227;BMP180;4154;48.810;9.012;2023-05-07T03:01:52;96964.00;;;12.30
8227;BMP180;4154;48.810;9.012;2023-05-07T03:04:17;96965.00;;;12.20
8227;BMP180;4154;48.810;9.012;2023-05-07T03:06:44;96964.00;;;12.20
8227;BMP180;4154;48.810;9.012;2023-05-07T03:09:09;96954.00;;;12.10
8227;BMP180;4154;48.810;9.012;2023-05-07T03:11:36;96948.00;;;12.20
8227;BMP180;4154;48.810;9.012;2023-05-07T03:14:02;96952.00;;;12.10
8227;BMP180;4154;48.810;9.012;2023-05-07T03:16:28;96955.00;;;12.10
8227;BMP180;4154;48.810;9.012;2023-05-07T03:18:54;96956.00;;;12.10
8227;BMP180;4154;48.810;9.012;2023-05-07T03:21:20;96961.00;;;12.10
8227;BMP180;4154;48.810;9.012;2023-05-07T03:23:45;96960.00;;;12.10
8227;BMP180;4154;48.810;9.012;2023-05-07T03:26:12;96956.00;;;12.10
8227;BMP180;4154;48.810;9.012;2023-05-07T03:28:37;96960.00;;;12.10
8227;BMP180;4154;48.810;9.012;2023-05-07T03:31:03;96955.00;;;12.10
8227;BMP180;4154;48.810;9.012;2023-05-07T03:33:29;96951.00;;;12.10
8227;BMP180;4154;48.810;9.012;2023-05-07T03:35:55;96958.00;;;12.00
8227;BMP180;4154;48.810;9.012;2023-05-07T03:38:21;96948.00;;;12.00
8227;BMP180;4154;48.810;9.012;2023-05-07T03:40:47;96948.00;;;11.90
8227;BMP180;4154;48.810;9.012;2023-05-07T03:43:12;96948.00;;;11.90
8227;BMP180;4154;48.810;9.012;2023-05-07T03:45:38;96955.00;;;12.00
8227;BMP180;4154;48.810;9.012;2023-05-07T03:48:04;96945.00;;;11.90
8227;BMP180;4154;48.810;9.012;2023-05-07T03:50:30;96954.00;;;11.90
8227;BMP180;4154;48.810;9.012;2023-05-07T03:52:56;96954.00;;;11.90
8227;BMP180;4154;48.810;9.012;2023-05-07T03:55:22;96957.00;;;11.90
8227;BMP180;4154;48.810;9.012;2023-05-07T03:57:47;96959.00;;;11.90
8227;BMP180;4154;48.810;9.012;2023-05-07T04:00:13;96950.00;;;11.90
8227;BMP180;4154;48.810;9.012;2023-05-07T04:02:39;96940.00;;;11.80
8227;BMP180;4154;48.810;9.012;2023-05-07T04:05:05;96954.00;;;11.80
8227;BMP180;4154;48.810;9.012;2023-05-07T04:07:31;96960.00;;;11.80
8227;BMP180;4154;48.810;9.012;2023-05-07T04:09:57;96961.00;;;11.80
8227;BMP180;4154;48.810;9.012;2023-05-07T04:12:23;96970.00;;;11.80
8227;BMP180;4154;48.810;9.012;2023-05-07T04:14:49;96968.00;;;11.80
8227;BMP180;4154;48.810;9.012;2023-05-07T04:17:15;96971.00;;;11.70
8227;BMP180;4154;48.810;9.012;2023-05-07T04:19:41;96966.00;;;11.70
8227;BMP180;4154;48.810;9.012;2023-05-07T04:22:11;96973.00;;;11.70
8227;BMP180;4154;48.810;9.012;2023-05-07T04:24:37;96976.00;;;11.70
8227;BMP180;4154;48.810;9.012;2023-05-07T04:27:03;96977.00;;;11.70
8227;BMP180;4154;48.810;9.012;2023-05-07T04:29:29;96974.00;;;11.70
8227;BMP180;4154;48.810;9.012;2023-05-07T04:31:54;96975.00;;;11.70
8227;BMP180;4154;48.810;9.012;2023-05-07T04:34:22;96980.00;;;11.70
8227;BMP180;4154;48.810;9.012;2023-05-07T04:36:47;96971.00;;;11.70
8227;BMP180;4154;48.810;9.012;2023-05-07T04:39:13;96978.00;;;11.70
8227;BMP180;4154;48.810;9.012;2023-05-07T04:41:39;96976.00;;;11.70
8227;BMP180;4154;48.810;9.012;2023-05-07T04:44:05;96986.00;;;11.70
8227;BMP180;4154;48.810;9.012;2023-05-07T04:46:32;96990.00;;;11.70
8227;BMP180;4154;48.810;9.012;2023-05-07T04:48:58;96983.00;;;11.70
8227;BMP180;4154;48.810;9.012;2023-05-07T04:51:24;96985.00;;;11.70
8227;BMP180;4154;48.810;9.012;2023-05-07T04:53:50;96967.00;;;11.70
8227;BMP180;4154;48.810;9.012;2023-05-07T04:56:16;96988.00;;;11.70
8227;BMP180;4154;48.810;9.012;2023-05-07T04:58:42;96984.00;;;11.60
8227;BMP180;4154;48.810;9.012;2023-05-07T05:01:07;96979.00;;;11.60
8227;BMP180;4154;48.810;9.012;2023-05-07T05:03:33;96986.00;;;11.60
8227;BMP180;4154;48.810;9.012;2023-05-07T05:05:59;96979.00;;;11.70
8227;BMP180;4154;48.810;9.012;2023-05-07T05:08:25;96990.00;;;11.70
8227;BMP180;4154;48.810;9.012;2023-05-07T05:10:51;97001.00;;;11.70
8227;BMP180;4154;48.810;9.012;2023-05-07T05:13:17;97006.00;;;11.70
8227;BMP180;4154;48.810;9.012;2023-05-07T05:15:43;97007.00;;;11.80
8227;BMP180;4154;48.810;9.012;2023-05-07T05:18:09;97009.00;;;11.80
8227;BMP180;4154;48.810;9.012;2023-05-07T05:20:34;97010.00;;;11.90
8227;BMP180;4154;48.810;9.012;2023-05-07T05:23:00;97011.00;;;11.90
8227;BMP180;4154;48.810;9.012;2023-05-07T05:25:26;97006.00;;;11.90
8227;BMP180;4154;48.810;9.012;2023-05-07T05:27:53;97010.00;;;11.90
8227;BMP180;4154;48.810;9.012;2023-05-07T05:30:20;97011.00;;;11.90
8227;BMP180;4154;48.810;9.012;2023-05-07T05:32:46;97013.00;;;12.00
8227;BMP180;4154;48.810;9.012;2023-05-07T05:35:11;97023.00;;;12.00
8227;BMP180;4154;48.810;9.012;2023-05-07T05:37:37;97020.00;;;12.10
8227;BMP180;4154;48.810;9.012;2023-05-07T05:40:03;97017.00;;;12.10
8227;BMP180;4154;48.810;9.012;2023-05-07T05:42:29;97023.00;;;12.20
8227;BMP180;4154;48.810;9.012;2023-05-07T05:44:55;97015.00;;;12.20
8227;BMP180;4154;48.810;9.012;2023-05-07T05:47:22;97027.00;;;12.30
8227;BMP180;4154;48.810;9.012;2023-05-07T05:49:48;97016.00;;;12.30
8227;BMP180;4154;48.810;9.012;2023-05-07T05:52:14;97022.00;;;12.40
8227;BMP180;4154;48.810;9.012;2023-05-07T05:54:39;97020.00;;;12.50
8227;BMP180;4154;48.810;9.012;2023-05-07T05:57:05;97018.00;;;12.50
8227;BMP180;4154;48.810;9.012;2023-05-07T05:59:31;97012.00;;;12.50
8227;BMP180;4154;48.810;9.012;2023-05-07T06:01:57;97026.00;;;12.60
8227;BMP180;4154;48.810;9.012;2023-05-07T06:04:23;97032.00;;;12.70
8227;BMP180;4154;48.810;9.012;2023-05-07T06:06:49;97031.00;;;12.80
8227;BMP180;4154;48.810;9.012;2023-05-07T06:09:15;97036.00;;;12.80
8227;BMP180;4154;48.810;9.012;2023-05-07T06:11:41;97036.00;;;12.80
8227;BMP180;4154;48.810;9.012;2023-05-07T06:14:07;97040.00;;;12.90
8227;BMP180;4154;48.810;9.012;2023-05-07T06:16:32;97032.00;;;13.00
8227;BMP180;4154;48.810;9.012;2023-05-07T06:18:58;97039.00;;;13.00
8227;BMP180;4154;48.810;9.012;2023-05-07T06:21:24;97035.00;;;13.00
8227;BMP180;4154;48.810;9.012;2023-05-07T06:23:50;97037.00;;;13.00
8227;BMP180;4154;48.810;9.012;2023-05-07T06:26:17;97033.00;;;13.00
8227;BMP180;4154;48.810;9.012;2023-05-07T06:28:43;97023.00;;;13.10
8227;BMP180;4154;48.810;9.012;2023-05-07T06:31:18;97028.00;;;13.20
8227;BMP180;4154;48.810;9.012;2023-05-07T06:33:46;97026.00;;;13.20
8227;BMP180;4154;48.810;9.012;2023-05-07T06:36:12;97042.00;;;13.30
8227;BMP180;4154;48.810;9.012;2023-05-07T06:38:38;97040.00;;;13.30
8227;BMP180;4154;48.810;9.012;2023-05-07T06:41:06;97036.00;;;13.40
8227;BMP180;4154;48.810;9.012;2023-05-07T06:43:32;97032.00;;;13.50
8227;BMP180;4154;48.810;9.012;2023-05-07T06:45:58;97040.00;;;13.50
8227;BMP180;4154;48.810;9.012;2023-05-07T06:48:24;97033.00;;;13.60
8227;BMP180;4154;48.810;9.012;2023-05-07T06:50:50;97035.00;;;13.80
8227;BMP180;4154;48.810;9.012;2023-05-07T06:53:16;97036.00;;;13.90
8227;BMP180;4154;48.810;9.012;2023-05-07T06:55:42;97036.00;;;13.90
8227;BMP180;4154;48.810;9.012;2023-05-07T06:58:07;97033.00;;;14.10
8227;BMP180;4154;48.810;9.012;2023-05-07T07:00:33;97035.00;;;14.20
8227;BMP180;4154;48.810;9.012;2023-05-07T07:03:00;97031.00;;;14.30
8227;BMP180;4154;48.810;9.012;2023-05-07T07:05:26;97038.00;;;14.40
8227;BMP180;4154;48.810;9.012;2023-05-07T07:07:52;97039.00;;;14.40
8227;BMP180;4154;48.810;9.012;2023-05-07T07:10:20;97035.00;;;14.60
8227;BMP180;4154;48.810;9.012;2023-05-07T07:12:46;97036.00;;;14.60
8227;BMP180;4154;48.810;9.012;2023-05-07T07:15:14;97027.00;;;14.80
8227;BMP180;4154;48.810;9.012;2023-05-07T07:17:40;97029.00;;;14.90
8227;BMP180;4154;48.810;9.012;2023-05-07T07:20:06;97034.00;;;15.00
8227;BMP180;4154;48.810;9.012;2023-05-07T07:22:32;97031.00;;;15.10
8227;BMP180;4154;48.810;9.012;2023-05-07T07:24:58;97022.00;;;15.20
8227;BMP180;4154;48.810;9.012;2023-05-07T07:27:24;97030.00;;;15.50
8227;BMP180;4154;48.810;9.012;2023-05-07T07:29:49;97034.00;;;15.60
8227;BMP180;4154;48.810;9.012;2023-05-07T07:32:16;97029.00;;;15.60
8227;BMP180;4154;48.810;9.012;2023-05-07T07:34:41;97040.00;;;15.70
8227;BMP180;4154;48.810;9.012;2023-05-07T07:37:07;97035.00;;;15.80
8227;BMP180;4154;48.810;9.012;2023-05-07T07:39:33;97032.00;;;16.00
8227;BMP180;4154;48.810;9.012;2023-05-07T07:41:59;97037.00;;;16.10
8227;BMP180;4154;48.810;9.012;2023-05-07T07:44:25;97041.00;;;16.30
8227;BMP180;4154;48.810;9.012;2023-05-07T07:46:51;97041.00;;;16.30
8227;BMP180;4154;48.810;9.012;2023-05-07T07:49:18;97039.00;;;16.40
8227;BMP180;4154;48.810;9.012;2023-05-07T07:51:44;97043.00;;;16.40
8227;BMP180;4154;48.810;9.012;2023-05-07T07:54:10;97042.00;;;16.50
8227;BMP180;4154;48.810;9.012;2023-05-07T07:56:36;97044.00;;;16.60
8227;BMP180;4154;48.810;9.012;2023-05-07T07:59:02;97040.00;;;16.60
8227;BMP180;4154;48.810;9.012;2023-05-07T08:01:31;97036.00;;;16.70
8227;BMP180;4154;48.810;9.012;2023-05-07T08:03:57;97042.00;;;16.70
8227;BMP180;4154;48.810;9.012;2023-05-07T08:06:25;97041.00;;;16.80
8227;BMP180;4154;48.810;9.012;2023-05-07T08:08:52;97051.00;;;16.80
8227;BMP180;4154;48.810;9.012;2023-05-07T08:11:18;97051.00;;;17.00
8227;BMP180;4154;48.810;9.012;2023-05-07T08:13:44;97052.00;;;17.10
8227;BMP180;4154;48.810;9.012;2023-05-07T08:16:10;97045.00;;;17.10
8227;BMP180;4154;48.810;9.012;2023-05-07T08:18:36;97044.00;;;17.30
8227;BMP180;4154;48.810;9.012;2023-05-07T08:21:02;97048.00;;;17.30
8227;BMP180;4154;48.810;9.012;2023-05-07T08:23:28;97046.00;;;17.30
8227;BMP180;4154;48.810;9.012;2023-05-07T08:25:54;97042.00;;;17.40
8227;BMP180;4154;48.810;9.012;2023-05-07T08:28:20;97046.00;;;17.50
8227;BMP180;4154;48.810;9.012;2023-05-07T08:30:47;97045.00;;;17.60
8227;BMP180;4154;48.810;9.012;2023-05-07T08:33:13;97045.00;;;17.70
8227;BMP180;4154;48.810;9.012;2023-05-07T08:35:39;97041.00;;;17.80
8227;BMP180;4154;48.810;9.012;2023-05-07T08:38:05;97035.00;;;17.90
8227;BMP180;4154;48.810;9.012;2023-05-07T08:40:38;97040.00;;;18.10
8227;BMP180;4154;48.810;9.012;2023-05-07T08:43:06;97042.00;;;18.40
8227;BMP180;4154;48.810;9.012;2023-05-07T08:45:34;97046.00;;;18.50
8227;BMP180;4154;48.810;9.012;2023-05-07T08:48:03;97050.00;;;18.50
8227;BMP180;4154;48.810;9.012;2023-05-07T08:50:31;97049.00;;;18.60
8227;BMP180;4154;48.810;9.012;2023-05-07T08:52:57;97045.00;;;18.80
8227;BMP180;4154;48.810;9.012;2023-05-07T08:55:24;97044.00;;;18.90
8227;BMP180;4154;48.810;9.012;2023-05-07T08:57:50;97037.00;;;18.90
8227;BMP180;4154;48.810;9.012;2023-05-07T09:00:16;97033.00;;;19.00
8227;BMP180;4154;48.810;9.012;2023-05-07T09:02:42;97040.00;;;19.10
8227;BMP180;4154;48.810;9.012;2023-05-07T09:05:08;97044.00;;;19.20
8227;BMP180;4154;48.810;9.012;2023-05-07T09:07:35;97039.00;;;19.40
8227;BMP180;4154;48.810;9.012;2023-05-07T09:10:05;97043.00;;;19.40
8227;BMP180;4154;48.810;9.012;2023-05-07T09:12:31;97032.00;;;19.40
8227;BMP180;4154;48.810;9.012;2023-05-07T09:14:59;97035.00;;;19.60
8227;BMP180;4154;48.810;9.012;2023-05-07T09:17:25;97034.00;;;19.70
8227;BMP180;4154;48.810;9.012;2023-05-07T09:19:51;97023.00;;;19.80
8227;BMP180;4154;48.810;9.012;2023-05-07T09:22:17;97023.00;;;19.80
8227;BMP180;4154;48.810;9.012;2023-05-07T09:24:51;97025.00;;;19.90
8227;BMP180;4154;48.810;9.012;2023-05-07T09:27:17;97029.00;;;19.90
8227;BMP180;4154;48.810;9.012;2023-05-07T09:29:44;97020.00;;;20.00
8227;BMP180;4154;48.810;9.012;2023-05-07T09:32:11;97019.00;;;20.10
8227;BMP180;4154;48.810;9.012;2023-05-07T09:34:36;97017.00;;;20.20
8227;BMP180;4154;48.810;9.012;2023-05-07T09:37:06;97023.00;;;20.30
8227;BMP180;4154;48.810;9.012;2023-05-07T09:39:46;97018.00;;;20.40
8227;BMP180;4154;48.810;9.012;2023-05-07T09:42:13;97016.00;;;20.60
8227;BMP180;4154;48.810;9.012;2023-05-07T09:44:43;97028.00;;;20.50
8227;BMP180;4154;48.810;9.012;2023-05-07T09:47:11;97013.00;;;20.60
8227;BMP180;4154;48.810;9.012;2023-05-07T09:49:39;97026.00;;;20.50
8227;BMP180;4154;48.810;9.012;2023-05-07T09:52:08;97027.00;;;20.30
8227;BMP180;4154;48.810;9.012;2023-05-07T09:54:36;97026.00;;;20.30
8227;BMP180;4154;48.810;9.012;2023-05-07T09:57:04;97026.00;;;20.20
8227;BMP180;4154;48.810;9.012;2023-05-07T09:59:32;97024.00;;;20.30
8227;BMP180;4154;48.810;9.012;2023-05-07T10:02:00;97023.00;;;20.50
8227;BMP180;4154;48.810;9.012;2023-05-07T10:04:27;97017.00;;;20.60
8227;BMP180;4154;48.810;9.012;2023-05-07T10:06:54;97015.00;;;20.70
8227;BMP180;4154;48.810;9.012;2023-05-07T10:09:22;97008.00;;;20.80
8227;BMP180;4154;48.810;9.012;2023-05-07T10:11:52;97009.00;;;20.80
8227;BMP180;4154;48.810;9.012;2023-05-07T10:14:20;97009.00;;;20.90
8227;BMP180;4154;48.810;9.012;2023-05-07T10:16:48;97005.00;;;20.80
8227;BMP180;4154;48.810;9.012;2023-05-07T10:19:14;96998.00;;;20.80
8227;BMP180;4154;48.810;9.012;2023-05-07T10:21:51;97009.00;;;20.70
8227;BMP180;4154;48.810;9.012;2023-05-07T10:24:21;97004.00;;;20.80
8227;BMP180;4154;48.810;9.012;2023-05-07T10:26:51;97010.00;;;20.80
8227;BMP180;4154;48.810;9.012;2023-05-07T10:34:39;97001.00;;;20.80
8227;BMP180;4154;48.810;9.012;2023-05-07T10:37:06;97006.00;;;20.80
8227;BMP180;4154;48.810;9.012;2023-05-07T10:39:32;97008.00;;;20.80
8227;BMP180;4154;48.810;9.012;2023-05-07T10:42:11;97001.00;;;20.90
8227;BMP180;4154;48.810;9.012;2023-05-07T10:44:37;97010.00;;;20.90
8227;BMP180;4154;48.810;9.012;2023-05-07T10:47:12;97012.00;;;20.90
8227;BMP180;4154;48.810;9.012;2023-05-07T10:52:16;96992.00;;;20.80
8227;BMP180;4154;48.810;9.012;2023-05-07T10:54:43;97001.00;;;20.70
8227;BMP180;4154;48.810;9.012;2023-05-07T10:57:36;96996.00;;;20.70
8227;BMP180;4154;48.810;9.012;2023-05-07T11:00:04;97005.00;;;20.60
8227;BMP180;4154;48.810;9.012;2023-05-07T11:05:31;97002.00;;;20.60
8227;BMP180;4154;48.810;9.012;2023-05-07T11:07:59;97004.00;;;20.70
8227;BMP180;4154;48.810;9.012;2023-05-07T11:10:49;97004.00;;;20.70
8227;BMP180;4154;48.810;9.012;2023-05-07T11:13:16;97008.00;;;20.70
8227;BMP180;4154;48.810;9.012;2023-05-07T11:15:46;97000.00;;;20.60
8227;BMP180;4154;48.810;9.012;2023-05-07T11:18:15;97006.00;;;20.60
8227;BMP180;4154;48.810;9.012;2023-05-07T11:20:51;97009.00;;;20.70
8227;BMP180;4154;48.810;9.012;2023-05-07T11:28:36;97009.00;;;20.60
8227;BMP180;4154;48.810;9.012;2023-05-07T11:31:03;97007.00;;;20.60
8227;BMP180;4154;48.810;9.012;2023-05-07T11:33:30;97011.00;;;20.50
8227;BMP180;4154;48.810;9.012;2023-05-07T11:35:57;97013.00;;;20.50
8227;BMP180;4154;48.810;9.012;2023-05-07T11:38:25;97013.00;;;20.40
8227;BMP180;4154;48.810;9.012;2023-05-07T11:40:56;97001.00;;;20.30
8227;BMP180;4154;48.810;9.012;2023-05-07T11:43:22;97006.00;;;20.30
8227;BMP180;4154;48.810;9.012;2023-05-07T11:45:50;97003.00;;;20.30
8227;BMP180;4154;48.810;9.012;2023-05-07T11:48:16;97010.00;;;20.30
8227;BMP180;4154;48.810;9.012;2023-05-07T11:51:03;97012.00;;;20.20
8227;BMP180;4154;48.810;9.012;2023-05-07T11:53:40;97016.00;;;20.30
8227;BMP180;4154;48.810;9.012;2023-05-07T11:56:13;97030.00;;;20.20
8227;BMP180;4154;48.810;9.012;2023-05-07T11:58:41;97033.00;;;20.20
8227;BMP180;4154;48.810;9.012;2023-05-07T12:01:12;97042.00;;;20.20
8227;BMP180;4154;48.810;9.012;2023-05-07T12:03:41;97056.00;;;20.20
8227;BMP180;4154;48.810;9.012;2023-05-07T12:06:16;97053.00;;;20.20
8227;BMP180;4154;48.810;9.012;2023-05-07T12:08:43;97044.00;;;20.10
8227;BMP180;4154;48.810;9.012;2023-05-07T12:11:22;97054.00;;;20.00
8227;BMP180;4154;48.810;9.012;2023-05-07T12:13:48;97051.00;;;19.90
8227;BMP180;4154;48.810;9.012;2023-05-07T12:16:14;97057.00;;;19.80
8227;BMP180;4154;48.810;9.012;2023-05-07T12:18:40;97045.00;;;19.80
8227;BMP180;4154;48.810;9.012;2023-05-07T12:21:07;97045.00;;;19.70
8227;BMP180;4154;48.810;9.012;2023-05-07T12:23:35;97047.00;;;19.60
8227;BMP180;4154;48.810;9.012;2023-05-07T12:26:02;97035.00;;;19.40
8227;BMP180;4154;48.810;9.012;2023-05-07T12:28:27;97047.00;;;19.30
8227;BMP180;4154;48.810;9.012;2023-05-07T12:30:54;97047.00;;;19.10
8227;BMP180;4154;48.810;9.012;2023-05-07T12:33:26;97033.00;;;18.90
8227;BMP180;4154;48.810;9.012;2023-05-07T12:35:55;97024.00;;;18.80
8227;BMP180;4154;48.810;9.012;2023-05-07T12:38:21;97030.00;;;18.60
8227;BMP180;4154;48.810;9.012;2023-05-07T12:40:53;97033.00;;;18.50
8227;BMP180;4154;48.810;9.012;2023-05-07T12:43:21;97032.00;;;18.40
8227;BMP180;4154;48.810;9.012;2023-05-07T12:45:50;97034.00;;;18.40
8227;BMP180;4154;48.810;9.012;2023-05-07T12:48:17;97036.00;;;18.30
8227;BMP180;4154;48.810;9.012;2023-05-07T12:50:43;97050.00;;;18.20
8227;BMP180;4154;48.810;9.012;2023-05-07T12:53:11;97061.00;;;18.20
8227;BMP180;4154;48.810;9.012;2023-05-07T12:55:50;97071.00;;;18.10
8227;BMP180;4154;48.810;9.012;2023-05-07T12:58:33;97076.00;;;18.10
8227;BMP180;4154;48.810;9.012;2023-05-07T13:01:07;97073.00;;;17.90
8227;BMP180;4154;48.810;9.012;2023-05-07T13:03:36;97074.00;;;17.80
8227;BMP180;4154;48.810;9.012;2023-05-07T13:06:05;97059.00;;;17.70
8227;BMP180;4154;48.810;9.012;2023-05-07T13:08:34;97057.00;;;17.70
8227;BMP180;4154;48.810;9.012;2023-05-07T13:11:03;97072.00;;;17.60
8227;BMP180;4154;48.810;9.012;2023-05-07T13:13:34;97082.00;;;17.50
8227;BMP180;4154;48.810;9.012;2023-05-07T13:16:01;97085.00;;;17.30
8227;BMP180;4154;48.810;9.012;2023-05-07T13:18:29;97070.00;;;17.20
8227;BMP180;4154;48.810;9.012;2023-05-07T13:20:55;97080.00;;;17.20
8227;BMP180;4154;48.810;9.012;2023-05-07T13:23:21;97090.00;;;17.10
8227;BMP180;4154;48.810;9.012;2023-05-07T13:25:48;97093.00;;;17.00
8227;BMP180;4154;48.810;9.012;2023-05-07T13:28:14;97096.00;;;16.90
8227;BMP180;4154;48.810;9.012;2023-05-07T13:30:40;97107.00;;;16.80
8227;BMP180;4154;48.810;9.012;2023-05-07T13:33:06;97105.00;;;16.80
8227;BMP180;4154;48.810;9.012;2023-05-07T13:35:33;97112.00;;;16.80
8227;BMP180;4154;48.810;9.012;2023-05-07T13:37:59;97113.00;;;16.80
8227;BMP180;4154;48.810;9.012;2023-05-07T13:40:24;97121.00;;;16.90
8227;BMP180;4154;48.810;9.012;2023-05-07T13:42:50;97123.00;;;16.80
8227;BMP180;4154;48.810;9.012;2023-05-07T13:45:18;97120.00;;;16.60
8227;BMP180;4154;48.810;9.012;2023-05-07T13:47:46;97125.00;;;16.60
8227;BMP180;4154;48.810;9.012;2023-05-07T13:50:12;97111.00;;;16.60
8227;BMP180;4154;48.810;9.012;2023-05-07T13:52:43;97111.00;;;16.50
8227;BMP180;4154;48.810;9.012;2023-05-07T13:55:11;97100.00;;;16.50
8227;BMP180;4154;48.810;9.012;2023-05-07T13:57:38;97099.00;;;16.50
8227;BMP180;4154;48.810;9.012;2023-05-07T14:00:04;97101.00;;;16.60
8227;BMP180;4154;48.810;9.012;2023-05-07T14:02:31;97110.00;;;16.50
8227;BMP180;4154;48.810;9.012;2023-05-07T14:04:57;97111.00;;;16.50
8227;BMP180;4154;48.810;9.012;2023-05-07T14:07:22;97122.00;;;16.50
8227;BMP180;4154;48.810;9.012;2023-05-07T14:09:48;97110.00;;;16.50
8227;BMP180;4154;48.810;9.012;2023-05-07T14:12:14;97126.00;;;16.50
8227;BMP180;4154;48.810;9.012;2023-05-07T14:14:40;97115.00;;;16.50
8227;BMP180;4154;48.810;9.012;2023-05-07T14:17:06;97122.00;;;16.50
8227;BMP180;4154;48.810;9.012;2023-05-07T14:19:32;97114.00;;;16.50
8227;BMP180;4154;48.810;9.012;2023-05-07T14:21:58;97120.00;;;16.50
8227;BMP180;4154;48.810;9.012;2023-05-07T14:24:24;97115.00;;;16.40
8227;BMP180;4154;48.810;9.012;2023-05-07T14:26:51;97107.00;;;16.40
8227;BMP180;4154;48.810;9.012;2023-05-07T14:29:17;97106.00;;;16.40
8227;BMP180;4154;48.810;9.012;2023-05-07T14:31:45;97102.00;;;16.40
8227;BMP180;4154;48.810;9.012;2023-05-07T14:34:11;97101.00;;;16.40
8227;BMP180;4154;48.810;9.012;2023-05-07T14:36:36;97104.00;;;16.40
8227;BMP180;4154;48.810;9.012;2023-05-07T14:39:03;97100.00;;;16.30
8227;BMP180;4154;48.810;9.012;2023-05-07T14:41:29;97102.00;;;16.30
8227;BMP180;4154;48.810;9.012;2023-05-07T14:43:56;97087.00;;;16.30
8227;BMP180;4154;48.810;9.012;2023-05-07T14:46:24;97105.00;;;16.30
8227;BMP180;4154;48.810;9.012;2023-05-07T14:48:50;97092.00;;;16.30